Latest Weather Observations for Cape Wessel

IDD60801

Issued at 9:31 am CST Thursday 23 February 2017 (issued every 30 minutes, with the page automatically refreshed every 10 minutes)

About weather observations | Map of weather stations | Latest weather observations for NT | Other Formats
Station Details ID: 200786 Name: CAPE WESSEL Lat: -11.00 Lon: 136.76 Height: 18.0 m
Data from the previous 72 hours. | See also: Recent months at Cape Wessel
Date/Time
CST
Temp
°C
App
Temp
°C
Dew
Point
°C
Rel
Hum
%
Delta-T
°C
Wind Press
QNH
hPa
Press
MSL
hPa
Rain since
9am
mm
Dir  Spd
km/h
Gust
km/h
Spd
kts
Gust
kts
23/09:30am 30.5 33.4 25.1 73 3.8 NNE 19 22 10 12 1011.3 1011.2 0.0
23/09:00am 30.2 33.4 25.0 73 3.7 N 17 22 9 12 1011.3 1011.2 0.0
23/08:30am 29.5 32.6 24.8 76 3.3 N 17 20 9 11 1011.3 1011.2 0.0
23/08:00am 29.4 32.8 24.7 76 3.3 N 15 17 8 9 1011.1 1011.0 0.0
23/07:30am 28.0 31.6 24.4 81 2.5 N 13 17 7 9 1010.7 1010.6 0.0
23/07:00am 27.8 31.3 24.2 81 2.5 NNE 13 17 7 9 1010.2 1010.1 0.0
23/06:30am 27.6 30.6 24.0 81 2.5 NNE 15 19 8 10 1010.1 1010.0 0.0
23/06:00am 27.5 30.2 24.1 82 2.4 N 17 20 9 11 1009.8 1009.7 0.0
23/05:30am 27.4 29.9 23.8 81 2.5 N 17 20 9 11 1009.6 1009.5 0.0
23/05:00am 27.5 30.6 24.1 82 2.3 N 15 19 8 10 1009.6 1009.5 0.0
23/04:30am 27.5 30.7 24.4 83 2.2 N 15 19 8 10 1009.4 1009.3 0.0
23/04:00am 27.5 31.2 24.6 84 2.0 NNW 13 17 7 9 1009.2 1009.1 0.0
23/03:30am 27.5 31.3 24.7 85 2.0 NNW 13 17 7 9 1009.0 1008.9 0.0
23/03:00am 27.2 30.5 24.5 85 1.9 NNW 15 17 8 9 1008.7 1008.6 0.0
23/02:30am 27.1 30.7 24.4 85 1.9 NW 13 17 7 9 1009.0 1008.9 0.0
23/02:00am 27.2 30.4 24.3 84 2.0 NW 15 19 8 10 1009.1 1009.0 0.0
23/01:30am 27.3 30.7 24.7 86 1.8 NW 15 19 8 10 1009.2 1009.1 0.0
23/01:00am 27.3 30.7 24.6 85 1.9 NW 15 17 8 9 1009.4 1009.3 0.0
23/12:30am 27.4 30.3 24.5 84 2.0 NNW 17 20 9 11 1009.7 1009.6 0.0
23/12:00am 27.5 30.6 24.1 82 2.4 NW 15 19 8 10 1009.9 1009.8 0.0
 
Date/Time
CST
Temp
°C
App
Temp
°C
Dew
Point
°C
Rel
Hum
%
Delta-T
°C
Wind Press
QNH
hPa
Press
MSL
hPa
Rain since
9am
mm
Dir  Spd
km/h
Gust
km/h
Spd
kts
Gust
kts
22/11:30pm 27.4 30.3 23.8 81 2.5 NW 15 19 8 10 1010.2 1010.1 0.0
22/11:00pm 27.7 31.0 24.5 83 2.2 WNW 15 19 8 10 1010.3 1010.2 0.0
22/10:30pm 27.6 30.6 24.0 81 2.5 WNW 15 19 8 10 1010.4 1010.3 0.0
22/10:00pm 27.9 30.2 24.5 82 2.4 NW 20 24 11 13 1009.9 1009.8 0.0
22/09:30pm 28.0 29.9 23.8 78 2.9 NW 20 24 11 13 1009.8 1009.7 0.0
22/09:00pm 28.1 29.6 24.3 80 2.6 NW 24 28 13 15 1009.5 1009.4 0.0
22/08:30pm 28.2 30.1 24.4 80 2.6 NW 22 30 12 16 1009.3 1009.2 0.0
22/08:00pm 28.3 30.3 24.5 80 2.6 NW 22 28 12 15 1009.2 1009.1 0.0
22/07:30pm 28.3 30.4 24.7 81 2.5 NW 22 28 12 15 1009.0 1008.9 0.0
22/07:00pm 28.3 30.4 24.1 78 2.9 NNW 20 26 11 14 1008.8 1008.7 0.0
22/06:30pm 28.8 30.5 24.1 76 3.3 NW 22 30 12 16 1009.0 1008.9 0.0
22/06:00pm 29.8 31.6 24.2 72 3.9 NNW 22 30 12 16 1008.8 1008.7 0.0
22/05:30pm 30.5 32.2 24.6 70 4.1 NNW 24 30 13 16 1008.4 1008.3 0.0
22/05:00pm 30.6 32.6 25.2 73 3.8 NNW 24 30 13 16 1008.2 1008.1 0.0
22/04:30pm 31.4 33.9 25.3 70 4.3 NNW 22 28 12 15 1008.2 1008.1 0.0
22/04:00pm 30.6 32.7 24.7 71 4.1 NW 22 28 12 15 1008.3 1008.2 0.0
22/03:30pm 30.9 32.8 25.0 71 4.2 NNW 24 30 13 16 1008.4 1008.3 0.0
22/03:00pm 31.3 33.4 25.4 71 4.2 NNW 24 32 13 17 1008.5 1008.4 0.0
22/02:30pm 32.1 34.8 26.2 71 4.2 NNW 24 32 13 17 1008.6 1008.5 0.0
22/02:00pm 31.8 34.2 25.2 68 4.7 NNW 22 30 12 16 1009.0 1008.9 0.0
22/01:30pm 32.0 33.7 24.6 65 5.2 NNW 24 30 13 16 1009.4 1009.3 0.0
22/01:00pm 32.5 34.9 25.8 68 4.8 NW 24 32 13 17 1009.8 1009.7 0.0
22/12:30pm 32.2 34.3 25.3 67 4.9 NNW 24 30 13 16 1010.3 1010.2 0.0
22/12:00pm 32.0 33.8 24.8 65 5.1 NNW 24 30 13 16 1010.5 1010.4 0.0
22/11:30am 32.1 34.4 25.7 69 4.6 NW 24 30 13 16 1010.7 1010.6 0.0
22/11:00am 31.5 33.5 25.1 69 4.5 NW 24 30 13 16 1011.1 1011.0 0.0
22/10:30am 31.0 33.3 25.1 71 4.2 NW 22 28 12 15 1011.3 1011.2 0.0
22/10:00am 31.3 33.8 25.4 71 4.2 NW 22 28 12 15 1011.3 1011.2 0.0
22/09:30am 30.8 33.8 25.6 74 3.7 NW 20 26 11 14 1011.3 1011.2 0.0
22/09:00am 30.3 32.6 25.1 73 3.7 NW 22 26 12 14 1011.4 1011.3 0.2
22/08:30am 30.1 32.9 24.9 73 3.7 WNW 19 24 10 13 1011.5 1011.4 0.2
22/08:00am 29.4 31.9 24.7 76 3.3 NW 20 24 11 13 1011.2 1011.1 0.2
22/07:30am 28.6 31.1 24.8 80 2.7 NW 20 26 11 14 1010.6 1010.5 0.2
22/07:00am 27.9 29.9 24.5 82 2.4 NW 22 26 12 14 1010.3 1010.2 0.2
22/06:30am 27.6 29.3 24.6 84 2.1 NW 24 28 13 15 1010.1 1010.0 0.2
22/06:00am 27.6 29.4 24.8 85 2.0 WNW 24 30 13 16 1010.0 1009.9 0.2
22/05:30am 27.5 29.6 24.7 85 2.0 NW 22 28 12 15 1009.6 1009.5 0.2
22/05:00am 27.5 30.1 24.9 86 1.8 NW 20 24 11 13 1009.6 1009.5 0.2
22/04:30am 27.5 30.2 25.1 87 1.7 NW 20 24 11 13 1009.4 1009.3 0.2
22/04:00am 27.5 29.8 25.1 87 1.7 NW 22 26 12 14 1009.1 1009.0 0.2
22/03:30am 27.4 30.2 25.2 88 1.5 NW 20 26 11 14 1008.9 1008.8 0.2
22/03:00am 27.4 30.1 25.0 87 1.7 NW 20 26 11 14 1008.9 1008.8 0.2
22/02:30am 27.5 29.8 25.1 87 1.7 NNW 22 26 12 14 1009.0 1008.9 0.2
22/02:00am 27.6 29.8 24.8 85 2.0 NNW 22 28 12 15 1009.3 1009.2 0.2
22/01:30am 27.6 29.8 24.8 85 2.0 NNW 22 26 12 14 1009.4 1009.3 0.2
22/01:00am 27.6 29.6 24.6 84 2.1 NNW 22 28 12 15 1009.7 1009.6 0.2
22/12:30am 27.6 30.1 24.8 85 2.0 NNW 20 26 11 14 1009.9 1009.8 0.2
22/12:00am 27.5 29.9 24.6 84 2.0 NNW 20 24 11 13 1010.0 1009.9 0.2
 
Date/Time
CST
Temp
°C
App
Temp
°C
Dew
Point
°C
Rel
Hum
%
Delta-T
°C
Wind Press
QNH
hPa
Press
MSL
hPa
Rain since
9am
mm
Dir  Spd
km/h
Gust
km/h
Spd
kts
Gust
kts
21/11:30pm 27.5 30.1 24.6 84 2.0 NNW 19 20 10 11 1010.2 1010.1 0.2
21/11:00pm 27.5 30.4 24.4 83 2.2 NNW 17 20 9 11 1010.5 1010.4 0.2
21/10:30pm 27.5 29.8 24.1 82 2.4 NNW 19 22 10 12 1010.5 1010.4 0.2
21/10:00pm 27.6 30.3 24.2 82 2.4 NNW 17 22 9 12 1010.4 1010.3 0.2
21/09:30pm 27.6 30.0 24.2 82 2.4 NNW 19 22 10 12 1010.1 1010.0 0.2
21/09:00pm 27.6 30.3 24.2 82 2.4 NW 17 20 9 11 1009.8 1009.7 0.2
21/08:30pm 27.6 31.0 24.6 84 2.1 NW 15 19 8 10 1009.6 1009.5 0.2
21/08:00pm 27.8 31.3 24.8 84 2.1 NW 15 20 8 11 1009.4 1009.3 0.2
21/07:30pm 27.9 30.7 24.3 81 2.5 WNW 17 20 9 11 1009.1 1009.0 0.2
21/07:00pm 28.0 30.5 24.4 81 2.5 NW 19 20 10 11 1008.9 1008.8 0.2
21/06:30pm 28.3 30.7 24.3 79 2.8 WNW 19 22 10 12 1008.3 1008.2 0.2
21/06:00pm 28.6 30.5 23.7 75 3.4 WNW 20 24 11 13 1007.9 1007.8 0.2
21/05:30pm 29.6 32.0 24.2 73 3.8 NW 19 22 10 12 1007.6 1007.5 0.2
21/05:00pm 30.3 32.7 24.2 70 4.2 NW 19 24 10 13 1007.4 1007.3 0.2
21/04:30pm 31.3 33.5 24.2 66 5.0 WNW 20 24 11 13 1007.3 1007.2 0.2
21/04:00pm 31.1 33.8 24.7 68 4.5 WNW 19 22 10 12 1007.5 1007.4 0.2
21/03:30pm 31.1 33.3 24.0 66 4.9 WNW 19 24 10 13 1007.9 1007.8 0.2
21/03:00pm 31.9 34.6 25.0 67 4.9 NW 20 24 11 13 1008.2 1008.1 0.2
21/02:30pm 31.7 34.3 24.6 66 5.0 NW 19 22 10 12 1008.5 1008.4 0.2
21/02:00pm 31.6 34.3 24.7 67 4.8 NNW 19 24 10 13 1009.0 1008.9 0.2
21/01:30pm 32.1 35.2 25.4 67 4.8 NNW 19 24 10 13 1009.6 1009.5 0.2
21/01:00pm 31.6 34.6 25.2 69 4.5 NNW 19 22 10 12 1010.1 1010.0 0.2
21/12:30pm 31.2 34.2 25.3 71 4.2 NNW 19 24 10 13 1010.7 1010.6 0.2
21/12:00pm 30.7 33.6 25.1 72 3.9 NNW 19 22 10 12 1011.3 1011.2 0.2
21/11:30am 30.2 33.3 24.8 73 3.8 NNW 17 20 9 11 1011.4 1011.3 0.2
21/11:00am 30.1 33.5 24.7 73 3.8 NNW 15 19 8 10 1011.5 1011.4 0.2
21/10:30am 30.2 33.8 24.4 71 4.0 N 13 17 7 9 1011.6 1011.5 0.0
21/10:00am 28.7 31.6 23.1 71 3.8 N 13 15 7 8 1011.6 1011.5 0.0
21/09:30am 28.1 31.9 24.1 79 2.8 N 11 13 6 7 1011.5 1011.4 0.0
21/09:00am 27.3 30.3 22.7 76 3.1 N 11 15 6 8 1011.2 1011.1 1.8
21/08:30am 26.0 29.1 23.5 86 1.7 NNE 13 15 7 8 1011.1 1011.0 1.8
21/08:00am 25.9 29.2 23.2 85 1.8 N 11 17 6 9 1010.5 1010.4 1.8
21/07:30am 25.8 29.2 22.7 83 2.1 NNW 9 13 5 7 1010.0 1009.9 1.8
21/07:00am 26.1 32.1 24.3 90 1.2 CALM 0 0 0 0 1009.6 1009.5 1.8
21/06:30am 25.8 30.5 24.0 90 1.2 NE 6 7 3 4 1009.4 1009.3 1.8
21/06:00am 25.8 30.1 24.2 91 1.1 S 9 11 5 6 1009.1 1009.0 1.8
21/05:30am 26.1 30.9 25.1 94 0.7 SW 9 11 5 6 1008.8 1008.7 1.8
21/05:00am 26.2 30.8 25.3 95 0.6 W 11 13 6 7 1008.4 1008.3 1.8
21/04:30am 26.2 30.6 25.7 97 0.4 W 13 15 7 8 1008.1 1008.0 1.8
21/04:00am 26.1 29.0 25.4 96 0.5 W 20 28 11 15 1007.7 1007.6 1.8
21/03:30am 25.5 27.7 23.9 91 1.1 WSW 19 26 10 14 1007.7 1007.6 1.4
21/03:00am 26.8 26.3 22.2 76 3.1 WSW 28 32 15 17 1007.7 1007.6 0.4
21/02:30am 27.9 28.7 24.5 82 2.4 WNW 28 32 15 17 1007.5 1007.4 0.4
21/02:00am 27.8 28.6 24.4 82 2.4 WNW 28 32 15 17 1007.8 1007.7 0.4
21/01:30am 27.9 29.0 24.3 81 2.5 WNW 26 32 14 17 1008.1 1008.0 0.4
21/01:00am 27.9 28.4 23.9 79 2.8 WNW 28 33 15 18 1008.2 1008.1 0.4
21/12:30am 27.8 29.0 23.8 79 2.8 WNW 24 32 13 17 1008.5 1008.4 0.4
21/12:00am 27.8 28.9 23.6 78 2.9 NW 24 32 13 17 1008.4 1008.3 0.4
 
Date/Time
CST
Temp
°C
App
Temp
°C
Dew
Point
°C
Rel
Hum
%
Delta-T
°C
Wind Press
QNH
hPa
Press
MSL
hPa
Rain since
9am
mm
Dir  Spd
km/h
Gust
km/h
Spd
kts
Gust
kts
20/11:30pm 27.8 28.9 23.6 78 2.9 NW 24 32 13 17 1008.6 1008.5 0.4
20/11:00pm 27.8 29.4 23.8 79 2.8 NW 22 28 12 15 1008.7 1008.6 0.4
20/10:30pm 28.1 28.8 23.7 77 3.0 WNW 26 30 14 16 1008.6 1008.5 0.4
20/10:00pm 28.0 29.3 23.4 76 3.2 WNW 22 28 12 15 1008.5 1008.4 0.4
20/09:30pm 27.9 28.9 22.8 74 3.5 WNW 22 26 12 14 1008.3 1008.2 0.4
20/09:00pm 27.8 29.0 22.5 73 3.6 WNW 20 26 11 14 1008.3 1008.2 0.4
20/08:30pm 27.8 29.1 22.7 74 3.5 WNW 20 26 11 14 1008.0 1007.9 0.4
20/08:00pm 27.7 29.1 22.9 75 3.3 WNW 20 26 11 14 1007.9 1007.8 0.4
20/07:30pm 27.6 29.1 23.0 76 3.1 WNW 20 28 11 15 1007.7 1007.6 0.4
20/07:00pm 27.6 28.7 22.3 73 3.6 WNW 20 26 11 14 1007.5 1007.4 0.4
20/06:30pm 27.8 28.7 22.7 74 3.5 WNW 22 28 12 15 1007.3 1007.2 0.4
20/06:00pm 28.1 28.5 23.2 74 3.4 W 26 32 14 17 1007.0 1006.9 0.4
20/05:30pm 28.3 28.7 23.2 74 3.5 W 26 32 14 17 1006.7 1006.6 0.4
20/05:00pm 28.7 29.3 23.4 73 3.6 WNW 26 32 14 17 1006.4 1006.3 0.4
20/04:30pm 28.9 29.3 23.1 71 4.0 W 26 30 14 16 1006.2 1006.1 0.4
20/04:00pm 29.2 29.3 23.2 70 4.1 WNW 28 32 15 17 1006.0 1005.9 0.4
20/03:30pm 29.1 29.2 24.0 74 3.5 W 30 35 16 19 1006.0 1005.9 0.4
20/03:00pm 29.3 29.7 23.7 72 3.9 W 28 35 15 19 1006.2 1006.1 0.4
20/02:30pm 30.1 32.3 24.9 73 3.7 WNW 22 30 12 16 1006.3 1006.2 0.4
20/02:00pm 29.3 29.7 24.4 75 3.4 WNW 30 35 16 19 1006.4 1006.3 0.4
20/01:30pm 28.7 30.2 24.9 80 2.7 NW 26 35 14 19 1006.9 1006.8 0.4
20/01:00pm 29.2 30.2 24.1 74 3.5 W 26 32 14 17 1007.1 1007.0 0.4
20/12:30pm 29.4 30.9 24.3 74 3.6 WNW 24 32 13 17 1007.7 1007.6 0.4
20/12:00pm 28.5 30.0 24.9 81 2.5 NW 26 30 14 16 1007.9 1007.8 0.4
20/11:40am 26.6 26.4 24.1 86 1.7 WNW 32 50 17 27 1008.0 1007.9 0.4
20/11:30am 27.5 25.5 23.3 78 2.9 WNW 39 54 21 29 1008.0 1007.9 0.0
20/11:27am 28.5 28.1 24.1 77 3.0 WNW 33 54 18 29 1007.9 1007.8 0.0
20/11:00am 27.7 28.9 24.5 83 2.2 W 26 32 14 17 1008.1 1008.0 0.0
20/10:30am 29.1 30.6 24.4 76 3.3 NW 24 32 13 17 1008.1 1008.0 0.0
20/10:00am 28.9 29.2 23.6 73 3.7 WNW 28 33 15 18 1008.2 1008.1 0.0

Other Formats:

Comma delimited format used in spreadsheet applications
http://www.bom.gov.au/fwo/IDD60801/IDD60801.94147.axf

JavaScript Object Notation format (JSON) in row-major order
http://www.bom.gov.au/fwo/IDD60801/IDD60801.94147.json